Time;durP1;ratioP1;P1;durP2;ratioP2;P2;SDS_P1;SDS_P2;PMS_P1;PMS_P2;Temp;Humidity;BMP_temperature;BMP_pressure;BME280_temperature;BME280_humidity;BME280_pressure;Samples;Min_cycle;Max_cycle;Signal;HPM_P1;HPM_P2
2023/09/30 00:02:12;;;;;;;15.68;8.23;;;;;;;13.58;95.01;102259.94;3617325;39;20377;-68
2023/09/30 00:04:39;;;;;;;15.82;8.95;;;;;;;13.34;94.72;102224.22;3616651;39;20051;-65
2023/09/30 00:07:05;;;;;;;13.25;8.98;;;;;;;13.58;94.84;102259.94;3619440;39;20102;-68
2023/09/30 00:09:30;;;;;;;13.18;8.40;;;;;;;13.59;94.80;102261.66;3616602;39;20059;-67
2023/09/30 00:11:56;;;;;;;11.05;8.25;;;;;;;13.44;94.69;102234.47;3615122;39;20337;-66
2023/09/30 00:14:22;;;;;;;12.38;8.82;;;;;;;13.50;95.27;102254.91;3616389;39;20066;-66
2023/09/30 00:16:47;;;;;;;14.25;8.63;;;;;;;13.59;95.74;102267.06;3615628;39;20067;-68
2023/09/30 00:19:13;;;;;;;12.18;8.60;;;;;;;13.59;95.34;102265.25;3615739;39;20065;-67
2023/09/30 00:21:39;;;;;;;13.20;8.57;;;;;;;13.62;95.15;102261.50;3616479;39;20047;-68
2023/09/30 00:24:05;;;;;;;13.45;8.80;;;;;;;13.63;95.58;102271.34;3617521;39;20130;-67
2023/09/30 00:26:31;;;;;;;11.57;8.70;;;;;;;13.63;94.74;102274.94;3615943;39;20061;-67
2023/09/30 00:28:56;;;;;;;14.27;8.52;;;;;;;13.64;94.95;102263.19;3611176;39;20047;-68
2023/09/30 00:31:22;;;;;;;12.98;8.73;;;;;;;13.66;95.08;102258.56;3614774;39;20054;-68
2023/09/30 00:33:48;;;;;;;13.07;8.70;;;;;;;13.66;95.53;102247.75;3615292;39;20093;-67
2023/09/30 00:36:13;;;;;;;11.60;8.75;;;;;;;13.67;94.86;102254.91;3616170;39;20124;-67
2023/09/30 00:38:42;;;;;;;12.23;9.13;;;;;;;13.68;95.32;102277.41;3614645;39;21265;-68
2023/09/30 00:41:08;;;;;;;11.73;9.15;;;;;;;13.68;95.27;102290.91;3615289;39;20135;-66
2023/09/30 00:43:34;;;;;;;13.73;8.82;;;;;;;13.68;95.28;102280.97;3617271;39;20054;-67
2023/09/30 00:46:26;;;;;;;12.13;8.98;;;;;;;13.66;94.45;102282.88;3615111;39;20057;-67
2023/09/30 00:48:54;;;;;;;15.68;9.55;;;;;;;13.62;94.32;102273.19;3612958;39;20058;-67
2023/09/30 00:51:22;;;;;;;11.85;9.00;;;;;;;13.66;94.30;102276.59;3616897;39;20051;-67
2023/09/30 00:53:49;;;;;;;16.23;9.52;;;;;;;13.62;94.69;102256.97;3614994;39;20157;-68
2023/09/30 00:56:16;;;;;;;12.88;8.65;;;;;;;13.64;94.76;102259.63;3616658;39;20405;-68
2023/09/30 00:58:42;;;;;;;14.38;9.48;;;;;;;13.65;95.06;102277.56;3615968;39;20394;-68
2023/09/30 01:01:09;;;;;;;13.00;9.05;;;;;;;13.61;95.34;102287.66;3615526;39;20055;-67
2023/09/30 01:03:36;;;;;;;15.32;9.40;;;;;;;13.62;95.03;102284.00;3614895;39;20087;-67
2023/09/30 01:06:02;;;;;;;11.48;8.77;;;;;;;13.61;94.84;102281.38;3614809;39;20304;-67
2023/09/30 01:08:29;;;;;;;13.43;8.82;;;;;;;13.60;94.87;102290.44;3616838;39;20051;-67
2023/09/30 01:10:56;;;;;;;17.23;8.73;;;;;;;13.56;94.25;102278.91;3616518;39;20047;-67
2023/09/30 01:13:22;;;;;;;12.82;8.75;;;;;;;13.51;94.36;102274.69;3615146;39;20073;-67
2023/09/30 01:15:47;;;;;;;16.23;9.15;;;;;;;13.52;94.10;102285.44;3617497;39;20087;-68
2023/09/30 01:18:13;;;;;;;13.38;8.77;;;;;;;13.48;94.08;102294.66;3615615;39;20390;-67
2023/09/30 01:20:40;;;;;;;12.10;8.50;;;;;;;13.43;94.04;102297.56;3615447;39;20400;-67
2023/09/30 01:23:05;;;;;;;10.32;8.63;;;;;;;13.41;94.26;102304.00;3616626;39;20162;-68
2023/09/30 01:25:33;;;;;;;12.25;9.10;;;;;;;13.40;94.18;102313.06;3615060;39;20389;-67
2023/09/30 01:28:00;;;;;;;15.00;9.38;;;;;;;13.35;93.92;102318.69;3615582;39;20054;-68
2023/09/30 01:30:26;;;;;;;11.93;8.73;;;;;;;13.32;93.78;102323.34;3615380;39;20055;-68
2023/09/30 01:32:51;;;;;;;13.15;8.98;;;;;;;13.29;93.85;102326.19;3608630;39;20293;-69
2023/09/30 01:35:17;;;;;;;14.60;9.05;;;;;;;13.26;94.80;102312.84;3617740;39;20050;-68
2023/09/30 01:37:42;;;;;;;12.88;9.10;;;;;;;13.26;94.68;102321.84;3613675;39;20066;-69
2023/09/30 01:40:11;;;;;;;14.93;9.82;;;;;;;13.21;94.30;102316.63;3614641;39;20057;-68
2023/09/30 01:42:38;;;;;;;11.15;9.27;;;;;;;13.24;95.02;102311.09;3615123;39;20039;-67
2023/09/30 01:45:04;;;;;;;12.98;9.40;;;;;;;13.21;94.31;102304.94;3614844;39;20055;-67
2023/09/30 01:47:30;;;;;;;11.35;9.02;;;;;;;13.05;94.03;102267.03;3615927;39;20270;-67
2023/09/30 01:49:56;;;;;;;12.18;8.90;;;;;;;13.16;93.37;102291.69;3621574;39;20141;-68
2023/09/30 01:52:21;;;;;;;13.48;8.52;;;;;;;13.15;93.85;102289.94;3615756;39;20046;-67
2023/09/30 01:54:47;;;;;;;13.05;9.20;;;;;;;13.11;93.69;102293.72;3615495;39;20059;-66
2023/09/30 01:57:13;;;;;;;14.45;8.93;;;;;;;13.05;93.79;102299.44;3615098;39;20050;-67
2023/09/30 01:59:39;;;;;;;14.10;9.70;;;;;;;13.05;94.16;102301.25;3617824;39;20074;-68
2023/09/30 02:02:04;;;;;;;14.32;9.45;;;;;;;13.00;93.49;102306.88;3616836;39;20050;-69
2023/09/30 02:04:30;;;;;;;13.93;9.98;;;;;;;12.96;93.62;102305.28;3606629;39;20058;-68
2023/09/30 02:06:56;;;;;;;12.63;8.85;;;;;;;12.97;93.82;102296.22;3614450;39;20050;-67
2023/09/30 02:09:22;;;;;;;15.63;12.10;;;;;;;12.96;93.63;102305.28;3616154;39;20050;-67
2023/09/30 02:11:47;;;;;;;15.20;10.10;;;;;;;12.97;94.43;102312.41;3616199;39;20054;-67
2023/09/30 02:14:13;;;;;;;16.38;10.80;;;;;;;13.01;95.32;102309.50;3608337;39;20066;-67
2023/09/30 02:16:39;;;;;;;15.32;10.77;;;;;;;12.53;94.25;102226.41;3616272;39;20695;-67
2023/09/30 02:19:06;;;;;;;13.23;10.32;;;;;;;13.01;94.85;102311.34;3616051;39;20057;-68
2023/09/30 02:21:32;;;;;;;15.68;11.32;;;;;;;13.02;95.35;102304.97;3614781;39;20051;-67
2023/09/30 02:23:57;;;;;;;14.57;11.00;;;;;;;13.04;95.44;102322.00;3606354;39;20053;-69
2023/09/30 02:26:25;;;;;;;15.48;10.93;;;;;;;13.04;95.06;102313.00;3605730;39;20312;-67
2023/09/30 02:28:52;;;;;;;13.25;10.00;;;;;;;13.04;95.23;102313.88;3616720;39;20159;-68
2023/09/30 02:31:18;;;;;;;15.70;9.77;;;;;;;12.86;94.79;102271.59;3613512;39;20064;-68
2023/09/30 02:33:44;;;;;;;13.80;9.68;;;;;;;12.96;94.79;102284.53;3613383;39;20107;-68
2023/09/30 02:36:10;;;;;;;15.35;9.93;;;;;;;12.98;95.27;102311.47;3614138;39;20062;-69
2023/09/30 02:38:38;;;;;;;13.45;9.75;;;;;;;12.82;94.85;102280.78;3612867;39;20066;-69
2023/09/30 02:41:05;;;;;;;13.70;10.05;;;;;;;12.96;94.78;102310.66;3614901;39;20083;-68
2023/09/30 02:43:30;;;;;;;14.18;9.43;;;;;;;12.95;94.58;102314.31;3618933;39;20457;-68
2023/09/30 02:45:56;;;;;;;15.93;10.57;;;;;;;12.93;94.51;102300.88;3619383;39;20059;-68
2023/09/30 02:48:22;;;;;;;15.07;9.98;;;;;;;12.90;94.88;102289.38;3615973;39;20042;-68
2023/09/30 02:50:47;;;;;;;16.30;10.32;;;;;;;12.89;95.23;102295.72;3616334;39;20111;-67
2023/09/30 02:53:13;;;;;;;13.75;10.38;;;;;;;12.87;95.58;102292.22;3614098;39;20050;-68
2023/09/30 02:55:41;;;;;;;13.57;10.00;;;;;;;12.82;95.45;102283.47;3616361;39;20349;-67
2023/09/30 02:58:08;;;;;;;16.33;10.30;;;;;;;12.85;95.59;102286.03;3614335;39;20047;-68
2023/09/30 03:00:35;;;;;;;12.57;9.98;;;;;;;12.87;95.29;102294.91;3613971;39;20057;-67
2023/09/30 03:03:02;;;;;;;13.73;10.30;;;;;;;12.84;94.73;102300.47;3613506;39;20274;-67
2023/09/30 03:05:33;;;;;;;11.65;9.25;;;;;;;12.82;95.06;102302.38;3616022;39;20086;-67
2023/09/30 03:08:00;;;;;;;15.65;10.63;;;;;;;12.66;94.60;102295.00;3616126;39;20057;-67
2023/09/30 03:10:26;;;;;;;16.15;11.10;;;;;;;12.59;95.77;102287.25;3613662;39;20043;-67
2023/09/30 03:13:01;;;;;;;15.57;10.52;;;;;;;12.79;95.74;102306.09;3604971;39;20043;-67
2023/09/30 03:15:30;;;;;;;15.82;10.13;;;;;;;12.65;95.63;102289.66;3617305;39;20046;-68
2023/09/30 03:17:57;;;;;;;14.07;9.85;;;;;;;12.78;96.20;102318.72;3616179;39;20311;-68
2023/09/30 03:20:25;;;;;;;16.42;11.20;;;;;;;12.81;96.65;102311.41;3614114;39;20074;-69
2023/09/30 03:22:51;;;;;;;15.40;10.77;;;;;;;12.83;96.40;102306.81;3616084;39;20147;-69
2023/09/30 03:25:20;;;;;;;15.32;11.18;;;;;;;12.85;96.56;102296.84;3615769;39;20073;-68
2023/09/30 03:27:47;;;;;;;17.25;11.45;;;;;;;12.88;96.22;102289.47;3616851;39;20067;-68
2023/09/30 03:30:17;;;;;;;16.33;10.52;;;;;;;12.87;95.65;102276.03;3615346;39;20053;-68
2023/09/30 03:32:43;;;;;;;16.30;10.85;;;;;;;12.87;96.29;102285.00;3616782;39;20426;-68
2023/09/30 03:35:14;;;;;;;15.85;11.43;;;;;;;12.88;96.34;102285.88;3615905;39;20504;-66
2023/09/30 03:37:41;;;;;;;15.82;11.68;;;;;;;12.89;96.80;102276.84;3614345;39;20394;-65
2023/09/30 03:40:14;;;;;;;16.65;11.32;;;;;;;12.88;96.68;102278.66;3609077;39;20057;-65
2023/09/30 03:42:43;;;;;;;18.40;11.45;;;;;;;12.90;96.93;102278.56;3616881;39;20054;-67
2023/09/30 03:45:09;;;;;;;17.65;10.65;;;;;;;12.87;96.22;102276.03;3617384;39;20046;-66
2023/09/30 03:47:37;;;;;;;16.63;11.35;;;;;;;12.86;96.88;102288.66;3614398;39;20050;-65
2023/09/30 03:50:05;;;;;;;16.52;11.52;;;;;;;12.88;96.79;102299.38;3614597;39;20374;-67
2023/09/30 03:52:34;;;;;;;14.95;11.88;;;;;;;12.85;96.49;102297.69;3613101;39;20059;-67
2023/09/30 03:55:04;;;;;;;20.15;12.65;;;;;;;12.84;97.02;102297.75;3615939;39;20050;-66
2023/09/30 03:57:33;;;;;;;16.05;11.10;;;;;;;12.64;96.42;102261.81;3614014;39;20308;-66
2023/09/30 04:00:06;;;;;;;14.30;10.95;;;;;;;12.81;95.94;102281.72;3616293;39;20378;-66
2023/09/30 04:02:32;;;;;;;16.80;11.55;;;;;;;12.81;96.81;102276.31;3617555;39;20042;-68
2023/09/30 04:04:57;;;;;;;16.00;11.88;;;;;;;12.81;96.68;102281.72;3618334;39;20155;-66
2023/09/30 04:07:27;;;;;;;14.18;10.85;;;;;;;12.82;97.03;102287.06;3616219;39;20378;-66
2023/09/30 04:09:55;;;;;;;14.43;11.05;;;;;;;12.83;96.89;102287.91;3613525;39;20313;-68
2023/09/30 04:12:23;;;;;;;15.25;10.88;;;;;;;12.77;96.72;102281.84;3613766;39;20051;-66
2023/09/30 04:14:49;;;;;;;17.25;11.52;;;;;;;12.84;96.70;102289.66;3616081;39;20388;-66
2023/09/30 04:17:15;;;;;;;14.20;11.25;;;;;;;12.83;96.91;102287.91;3615845;39;20050;-67
2023/09/30 04:19:40;;;;;;;18.30;11.27;;;;;;;12.85;96.43;102296.84;3612982;39;20066;-66
2023/09/30 04:22:06;;;;;;;17.05;11.18;;;;;;;12.84;96.26;102292.34;3612882;39;20050;-67
2023/09/30 04:24:32;;;;;;;16.50;11.77;;;;;;;12.81;96.49;102282.59;3616470;39;20054;-67
2023/09/30 04:27:02;;;;;;;18.90;10.80;;;;;;;12.82;96.56;102280.78;3613921;39;20076;-68
2023/09/30 04:29:29;;;;;;;16.02;11.02;;;;;;;12.80;96.60;102290.78;3613848;39;20412;-67
2023/09/30 04:31:56;;;;;;;14.60;10.50;;;;;;;12.80;96.32;102288.06;3614860;39;20094;-66
2023/09/30 04:34:21;;;;;;;15.77;11.13;;;;;;;12.71;96.06;102274.06;3616760;39;20046;-65
2023/09/30 04:36:47;;;;;;;15.32;11.13;;;;;;;12.74;96.07;102289.22;3615862;39;20043;-66
2023/09/30 04:39:14;;;;;;;16.65;10.85;;;;;;;12.71;95.64;102294.75;3616282;39;20061;-66
2023/09/30 04:41:41;;;;;;;15.57;10.93;;;;;;;12.60;95.66;102280.94;3618204;39;20061;-66
2023/09/30 04:44:09;;;;;;;15.45;10.80;;;;;;;12.69;96.40;102302.94;3617395;39;20069;-67
2023/09/30 04:46:40;;;;;;;16.08;11.20;;;;;;;12.64;96.07;102290.63;3606650;39;20046;-67
2023/09/30 04:49:07;;;;;;;17.00;11.15;;;;;;;12.53;95.94;102277.66;3619795;39;20124;-67
2023/09/30 04:51:34;;;;;;;15.20;11.10;;;;;;;12.62;95.95;102292.50;3618533;39;20060;-67
2023/09/30 04:53:59;;;;;;;16.30;10.80;;;;;;;12.61;95.86;102296.16;3615952;39;20051;-66
2023/09/30 04:56:25;;;;;;;15.15;11.05;;;;;;;12.57;95.67;102298.13;3617097;39;20314;-67
2023/09/30 04:58:51;;;;;;;16.02;10.98;;;;;;;12.47;95.42;102296.81;3617230;39;20061;-68
2023/09/30 05:01:18;;;;;;;17.58;10.75;;;;;;;12.53;95.50;102315.41;3617946;39;20047;-66
2023/09/30 05:03:49;;;;;;;14.65;10.55;;;;;;;12.52;95.77;102319.03;3617023;39;20059;-67
2023/09/30 05:06:15;;;;;;;15.40;10.32;;;;;;;12.50;94.83;102315.56;3617962;39;20050;-66
2023/09/30 05:08:41;;;;;;;17.35;11.63;;;;;;;12.48;94.97;102314.72;3614573;39;20204;-66
2023/09/30 05:11:07;;;;;;;16.65;10.48;;;;;;;12.01;94.73;102243.16;3614284;39;20298;-67
2023/09/30 05:13:34;;;;;;;14.90;10.65;;;;;;;12.40;94.82;102308.81;3613792;39;20352;-66
2023/09/30 05:16:00;;;;;;;15.73;11.13;;;;;;;12.42;95.32;102315.88;3617268;39;20047;-67
2023/09/30 05:18:26;;;;;;;16.00;11.15;;;;;;;12.42;95.24;102320.41;3615330;39;20051;-66
2023/09/30 05:20:52;;;;;;;16.52;11.10;;;;;;;12.41;94.86;102313.28;3616007;39;20066;-67
2023/09/30 05:23:17;;;;;;;13.45;10.85;;;;;;;12.38;94.69;102316.97;3617909;39;20050;-66
2023/09/30 05:25:43;;;;;;;17.67;11.43;;;;;;;12.35;94.60;102318.94;3617307;39;20069;-65
2023/09/30 05:28:09;;;;;;;15.70;11.20;;;;;;;12.32;94.82;102323.50;3616806;39;20318;-65
2023/09/30 05:30:35;;;;;;;18.60;11.02;;;;;;;12.30;95.36;102328.13;3615741;39;20432;-66
2023/09/30 05:33:01;;;;;;;14.75;10.88;;;;;;;12.30;95.71;102328.13;3616615;39;20098;-66
2023/09/30 05:35:28;;;;;;;18.10;11.35;;;;;;;12.29;95.79;102331.75;3618863;39;20366;-65
2023/09/30 05:37:54;;;;;;;16.05;11.48;;;;;;;12.28;95.38;102332.69;3614968;39;20374;-66
2023/09/30 05:40:26;;;;;;;15.93;11.27;;;;;;;12.26;95.40;102321.09;3616492;39;20054;-66
2023/09/30 05:43:00;;;;;;;16.15;11.00;;;;;;;12.15;95.65;102315.31;3616411;39;20124;-68
2023/09/30 05:45:30;;;;;;;14.13;11.13;;;;;;;12.22;95.58;102327.56;3619020;39;20332;-67
2023/09/30 05:47:58;;;;;;;15.05;10.32;;;;;;;12.25;95.76;102340.91;3616091;39;20070;-67
2023/09/30 05:50:26;;;;;;;18.73;11.73;;;;;;;12.28;96.67;102339.91;3615891;39;20062;-66
2023/09/30 05:52:53;;;;;;;18.02;11.38;;;;;;;12.31;96.73;102339.78;3604316;39;20063;-67
2023/09/30 05:55:22;;;;;;;15.45;11.20;;;;;;;12.34;96.84;102328.84;3613839;39;20170;-66
2023/09/30 05:57:52;;;;;;;20.05;12.35;;;;;;;12.39;97.05;102342.13;3615396;39;20049;-67
2023/09/30 06:00:22;;;;;;;17.15;11.93;;;;;;;12.39;97.90;102331.34;3616312;39;20035;-67
2023/09/30 06:02:51;;;;;;;20.88;13.05;;;;;;;12.49;98.15;102348.84;3617326;39;20127;-66
2023/09/30 06:05:18;;;;;;;17.67;12.35;;;;;;;12.54;98.10;102342.28;3617847;39;20050;-67
2023/09/30 06:07:47;;;;;;;17.80;12.32;;;;;;;12.58;98.65;102336.75;3608520;39;20043;-67
2023/09/30 06:10:15;;;;;;;18.48;11.88;;;;;;;12.63;98.60;102335.59;3616984;39;20049;-67
2023/09/30 06:12:41;;;;;;;18.20;11.82;;;;;;;12.67;98.48;102337.22;3616631;39;20485;-66
2023/09/30 06:15:07;;;;;;;18.13;12.38;;;;;;;12.64;98.81;102321.16;3618424;39;20051;-66
2023/09/30 06:17:33;;;;;;;18.00;12.15;;;;;;;12.76;98.43;102335.91;3618457;39;20054;-67
2023/09/30 06:20:07;;;;;;;20.52;12.00;;;;;;;12.83;98.27;102336.50;3613726;39;20058;-68
2023/09/30 06:22:33;;;;;;;15.80;11.80;;;;;;;12.86;98.51;102344.44;3614202;39;20051;-67
2023/09/30 06:24:58;;;;;;;17.75;12.10;;;;;;;12.85;98.25;102329.22;3614332;39;20073;-66
2023/09/30 06:27:24;;;;;;;18.42;11.35;;;;;;;12.95;98.45;102336.78;3615160;39;20065;-66
2023/09/30 06:29:49;;;;;;;21.80;12.50;;;;;;;13.00;98.48;102333.84;3616987;39;20059;-66
2023/09/30 06:32:15;;;;;;;19.83;12.45;;;;;;;13.06;98.93;102347.06;3618063;39;20054;-66
2023/09/30 06:34:41;;;;;;;18.27;12.00;;;;;;;13.11;98.55;102331.53;3614150;39;20069;-67
2023/09/30 06:37:08;;;;;;;19.50;12.40;;;;;;;13.06;98.02;102328.16;3616861;39;20062;-67
2023/09/30 06:39:34;;;;;;;21.20;12.60;;;;;;;12.90;98.15;102283.97;3615194;39;20074;-68
2023/09/30 06:41:59;;;;;;;17.45;12.07;;;;;;;13.23;98.29;102336.34;3617705;39;20057;-67
2023/09/30 06:44:25;;;;;;;19.02;12.15;;;;;;;13.29;98.22;102342.41;3618364;39;20058;-67
2023/09/30 06:46:51;;;;;;;19.05;11.60;;;;;;;13.30;97.88;102342.34;3613425;39;20440;-67
2023/09/30 06:49:17;;;;;;;16.63;12.10;;;;;;;13.31;97.77;102332.41;3607212;39;20372;-66
2023/09/30 06:51:43;;;;;;;14.45;11.52;;;;;;;13.40;97.96;102353.56;3614703;39;20059;-66
2023/09/30 06:54:09;;;;;;;18.20;12.30;;;;;;;13.45;98.36;102354.22;3614079;39;20058;-66
2023/09/30 06:56:34;;;;;;;18.95;12.77;;;;;;;13.55;99.22;102357.34;3615849;39;20305;-67
2023/09/30 06:59:01;;;;;;;19.10;11.73;;;;;;;13.64;98.82;102373.09;3619537;39;20066;-66
2023/09/30 07:01:27;;;;;;;17.20;11.70;;;;;;;13.68;98.63;102382.81;3614506;39;20286;-67
2023/09/30 07:03:52;;;;;;;19.17;11.95;;;;;;;13.77;98.69;102384.19;3615190;39;20058;-68
2023/09/30 07:06:25;;;;;;;19.45;11.52;;;;;;;13.83;98.77;102386.56;3606902;39;20058;-67
2023/09/30 07:08:51;;;;;;;19.98;12.10;;;;;;;13.87;98.89;102386.31;3613711;39;20603;-68
2023/09/30 07:11:17;;;;;;;19.10;11.63;;;;;;;13.97;98.53;102386.72;3612956;39;20053;-66
2023/09/30 07:13:42;;;;;;;16.92;11.63;;;;;;;14.04;99.03;102392.69;3616991;39;20074;-66
2023/09/30 07:16:08;;;;;;;17.35;11.43;;;;;;;14.25;99.66;102398.84;3615415;39;20127;-67
2023/09/30 07:18:34;;;;;;;17.08;11.10;;;;;;;14.36;98.80;102388.31;3614761;39;20061;-66
2023/09/30 07:20:59;;;;;;;17.75;11.23;;;;;;;14.48;98.16;102397.63;3615763;39;20046;-67
2023/09/30 07:23:25;;;;;;;18.13;10.85;;;;;;;14.58;97.43;102397.06;3615038;39;20329;-67
2023/09/30 07:25:50;;;;;;;19.55;11.43;;;;;;;14.70;96.84;102408.19;3614331;39;20050;-67
2023/09/30 07:28:16;;;;;;;19.75;11.02;;;;;;;14.73;95.98;102405.34;3617019;39;20377;-67
2023/09/30 07:30:42;;;;;;;21.90;11.00;;;;;;;14.82;95.68;102432.78;3616252;39;20287;-68
2023/09/30 07:33:08;;;;;;;21.52;10.68;;;;;;;14.89;95.68;102438.72;3609782;39;20150;-67
2023/09/30 07:35:34;;;;;;;19.00;11.00;;;;;;;14.79;95.32;102423.94;3612986;39;20477;-67
2023/09/30 07:38:00;;;;;;;20.13;10.48;;;;;;;14.96;94.44;102452.81;3614476;39;20063;-67
2023/09/30 07:40:27;;;;;;;20.63;11.10;;;;;;;14.99;95.59;102439.97;3604191;39;20054;-69
2023/09/30 07:42:54;;;;;;;17.17;9.60;;;;;;;15.18;94.61;102452.50;3614416;39;20072;-68
2023/09/30 07:45:20;;;;;;;17.08;10.05;;;;;;;15.31;94.31;102454.44;3613324;39;20301;-69
2023/09/30 07:47:46;;;;;;;17.95;9.88;;;;;;;15.46;94.33;102450.00;3615409;39;20039;-68
2023/09/30 07:50:12;;;;;;;16.23;10.45;;;;;;;15.61;93.68;102437.44;3608187;39;20057;-68
2023/09/30 07:52:39;;;;;;;18.60;10.10;;;;;;;15.84;93.12;102432.53;3616526;39;20092;-68
2023/09/30 07:55:06;;;;;;;17.55;9.63;;;;;;;16.00;91.24;102442.41;3615612;39;20051;-67
2023/09/30 07:57:33;;;;;;;15.18;9.15;;;;;;;16.09;90.12;102429.25;3614256;39;20070;-68
2023/09/30 07:59:58;;;;;;;19.27;9.40;;;;;;;16.34;91.10;102436.81;3612884;39;20054;-67
2023/09/30 08:02:27;;;;;;;14.52;8.40;;;;;;;16.53;88.92;102439.28;3613899;39;20622;-67
2023/09/30 08:04:53;;;;;;;15.48;9.10;;;;;;;16.67;86.91;102442.88;3614072;39;20507;-67
2023/09/30 08:07:19;;;;;;;17.13;8.70;;;;;;;16.83;86.08;102442.81;3616593;39;20062;-69
2023/09/30 08:09:44;;;;;;;14.13;8.43;;;;;;;16.94;85.49;102439.47;3616134;39;20090;-67
2023/09/30 08:12:10;;;;;;;13.77;8.00;;;;;;;17.14;85.11;102443.63;3618199;39;20060;-67
2023/09/30 08:14:35;;;;;;;16.02;8.55;;;;;;;17.28;85.69;102435.44;3616512;39;20317;-66
2023/09/30 08:17:02;;;;;;;16.55;8.23;;;;;;;17.38;84.39;102433.91;3616456;39;20050;-67
2023/09/30 08:19:28;;;;;;;17.52;8.73;;;;;;;17.55;84.18;102429.19;3614553;39;20043;-67
2023/09/30 08:21:53;;;;;;;13.35;7.85;;;;;;;17.61;83.35;102432.38;3616418;39;20347;-67
2023/09/30 08:24:19;;;;;;;13.65;7.55;;;;;;;17.67;82.42;102425.66;3617774;39;20046;-66
2023/09/30 08:26:45;;;;;;;16.70;8.13;;;;;;;17.76;82.09;102422.34;3616202;39;20050;-66
2023/09/30 08:29:10;;;;;;;16.98;7.60;;;;;;;17.90;82.99;102417.84;3606023;39;20058;-66
2023/09/30 08:31:36;;;;;;;13.85;8.02;;;;;;;18.04;82.90;102425.94;3603946;39;20357;-67
2023/09/30 08:34:03;;;;;;;15.88;7.68;;;;;;;18.23;82.87;102425.53;3614797;39;20061;-67
2023/09/30 08:36:30;;;;;;;17.48;8.05;;;;;;;18.25;79.95;102421.75;3616006;39;20086;-67
2023/09/30 08:38:55;;;;;;;13.38;7.07;;;;;;;17.91;78.96;102367.88;3607653;39;20127;-66
2023/09/30 08:41:34;;;;;;;14.05;7.28;;;;;;;18.21;78.59;102414.78;3615833;39;20054;-65
2023/09/30 08:44:02;;;;;;;15.07;7.60;;;;;;;18.27;79.15;102411.63;3615889;39;20123;-66
2023/09/30 08:46:32;;;;;;;11.45;7.07;;;;;;;18.22;78.71;102393.88;3614807;39;20366;-66
2023/09/30 08:49:01;;;;;;;14.68;7.20;;;;;;;18.48;77.83;102413.84;3616851;39;20098;-65
2023/09/30 08:51:30;;;;;;;13.23;7.10;;;;;;;18.51;76.96;102413.63;3617950;39;20047;-66
2023/09/30 08:53:58;;;;;;;16.55;7.60;;;;;;;18.61;77.97;102406.53;3614971;39;20087;-65
2023/09/30 08:56:29;;;;;;;10.32;6.85;;;;;;;18.75;76.17;102411.94;3614788;39;20051;-67
2023/09/30 08:59:00;;;;;;;16.98;7.60;;;;;;;18.92;76.84;102412.56;3616105;39;20046;-66
2023/09/30 09:01:31;;;;;;;11.77;6.53;;;;;;;19.06;75.29;102406.09;3613944;39;20043;-66
2023/09/30 09:03:57;;;;;;;14.45;6.60;;;;;;;19.16;73.61;102410.78;3614831;39;20062;-65
2023/09/30 09:06:26;;;;;;;14.07;6.60;;;;;;;19.31;74.16;102414.22;3616576;39;20047;-65
2023/09/30 09:08:52;;;;;;;12.50;6.57;;;;;;;19.43;72.12;102416.06;3614660;39;20047;-67
2023/09/30 09:11:18;;;;;;;13.70;6.03;;;;;;;19.52;72.60;102441.78;3615496;39;20108;-66
2023/09/30 09:13:50;;;;;;;15.23;6.68;;;;;;;19.58;71.20;102449.53;3615067;39;20051;-66
2023/09/30 09:16:20;;;;;;;12.45;6.10;;;;;;;19.61;70.37;102448.44;3606985;39;20047;-66
2023/09/30 09:18:47;;;;;;;12.38;5.40;;;;;;;19.68;68.44;102456.06;3616829;39;20098;-66
2023/09/30 09:21:22;;;;;;;13.38;5.97;;;;;;;19.62;66.96;102445.56;3619712;39;20054;-66
2023/09/30 09:23:54;;;;;;;9.77;5.40;;;;;;;19.67;67.01;102458.91;3617645;39;20055;-66
2023/09/30 09:26:38;;;;;;;11.80;5.70;;;;;;;19.68;67.25;102471.56;3615439;39;20111;-65
2023/09/30 09:29:04;;;;;;;10.90;5.80;;;;;;;19.68;67.16;102471.56;3614241;39;20047;-67
2023/09/30 09:31:35;;;;;;;12.45;5.80;;;;;;;19.71;67.79;102477.66;3616883;39;20051;-68
2023/09/30 09:34:13;;;;;;;10.43;5.57;;;;;;;19.92;67.15;102479.78;3604340;39;20039;-65
2023/09/30 09:36:43;;;;;;;10.85;5.55;;;;;;;20.06;66.92;102476.88;3616351;39;20287;-66
2023/09/30 09:39:13;;;;;;;12.57;6.25;;;;;;;20.28;66.92;102477.97;3616418;39;20116;-65
2023/09/30 09:41:57;;;;;;;13.15;5.95;;;;;;;20.42;66.73;102464.09;3616748;39;20057;-66
2023/09/30 09:44:27;;;;;;;14.00;5.80;;;;;;;20.75;65.40;102487.09;3616062;39;20111;-67
2023/09/30 09:46:53;;;;;;;10.38;5.45;;;;;;;20.84;63.50;102480.91;3617435;39;20042;-67
2023/09/30 09:49:21;;;;;;;12.07;5.57;;;;;;;20.95;63.58;102480.91;3615806;39;20050;-65
2023/09/30 09:51:49;;;;;;;12.45;5.60;;;;;;;21.00;62.29;102486.03;3614769;39;20293;-65
2023/09/30 09:54:16;;;;;;;12.80;5.75;;;;;;;20.86;62.03;102460.66;3615709;39;20412;-66
2023/09/30 09:56:45;;;;;;;10.43;5.40;;;;;;;20.95;62.24;102480.91;3617769;39;20062;-66
2023/09/30 09:59:13;;;;;;;11.60;5.32;;;;;;;21.13;62.04;102488.66;3617350;39;20053;-67
2023/09/30 10:01:42;;;;;;;10.30;5.10;;;;;;;21.06;60.82;102469.16;3614990;39;20433;-65
2023/09/30 10:04:11;;;;;;;10.30;5.60;;;;;;;20.89;60.31;102464.13;3616803;39;20057;-65
2023/09/30 10:06:40;;;;;;;9.32;4.85;;;;;;;21.07;59.94;102488.16;3614106;39;20070;-66
2023/09/30 10:09:12;;;;;;;10.55;5.18;;;;;;;21.16;60.82;102491.16;3614512;39;20042;-65
2023/09/30 10:11:41;;;;;;;8.68;5.35;;;;;;;21.37;59.83;102492.16;3614203;39;20129;-67
2023/09/30 10:14:14;;;;;;;10.30;5.38;;;;;;;21.43;59.44;102496.28;3615292;39;20047;-66
2023/09/30 10:16:40;;;;;;;9.93;5.57;;;;;;;21.50;59.25;102492.94;3617737;39;20049;-66
2023/09/30 10:19:14;;;;;;;9.15;5.40;;;;;;;21.57;58.30;102506.97;3617393;39;20058;-66
2023/09/30 10:22:21;;;;;;;8.90;5.03;;;;;;;21.68;58.23;102514.28;3616246;39;20050;-66
2023/09/30 10:24:49;;;;;;;9.98;5.20;;;;;;;21.84;59.21;102501.06;3613828;39;20050;-65
2023/09/30 10:27:34;;;;;;;8.00;4.45;;;;;;;22.05;57.46;102481.13;3616664;39;20039;-65
2023/09/30 10:30:28;;;;;;;10.50;5.32;;;;;;;22.20;55.62;102479.81;3613799;39;20308;-67
2023/09/30 10:32:53;;;;;;;7.50;3.55;;;;;;;22.34;55.47;102479.53;3616299;39;20412;-66
2023/09/30 10:35:27;;;;;;;7.18;4.15;;;;;;;22.33;54.78;102472.31;3613560;39;20047;-65
2023/09/30 10:38:21;;;;;;;9.30;4.45;;;;;;;22.40;54.25;102473.53;3615063;39;20078;-67
2023/09/30 10:40:49;;;;;;;7.85;4.70;;;;;;;22.46;54.18;102470.25;3615471;39;20047;-66
2023/09/30 10:43:35;;;;;;;7.63;4.13;;;;;;;22.48;52.98;102462.75;3614370;39;20047;-65
2023/09/30 10:46:02;;;;;;;9.02;4.20;;;;;;;22.40;53.50;102459.81;3615610;39;20964;-66
2023/09/30 10:48:28;;;;;;;10.90;4.47;;;;;;;22.57;55.28;102457.50;3615830;39;20062;-66
2023/09/30 10:50:56;;;;;;;8.27;4.20;;;;;;;22.62;53.19;102457.97;3616253;39;20051;-66
2023/09/30 10:53:22;;;;;;;8.73;5.07;;;;;;;22.65;54.49;102449.47;3616012;39;20066;-66
2023/09/30 10:55:57;;;;;;;8.50;5.18;;;;;;;22.96;54.91;102444.03;3620083;39;20076;-65
2023/09/30 10:58:43;;;;;;;9.10;4.30;;;;;;;23.27;52.28;102447.66;3618709;39;20100;-67
2023/09/30 11:01:09;;;;;;;10.60;4.97;;;;;;;23.46;51.77;102431.25;3613855;39;20053;-66
2023/09/30 11:03:36;;;;;;;9.65;5.15;;;;;;;23.60;53.01;102433.63;3614502;39;20059;-65
2023/09/30 11:06:03;;;;;;;9.63;4.95;;;;;;;23.70;52.56;102425.44;3614850;39;20054;-65
2023/09/30 11:08:30;;;;;;;10.20;3.92;;;;;;;23.75;49.73;102417.63;3606822;39;20326;-66
2023/09/30 11:10:56;;;;;;;8.75;4.10;;;;;;;23.72;48.58;102437.13;3613588;39;20060;-65
2023/09/30 11:13:22;;;;;;;6.95;3.70;;;;;;;23.43;49.23;102436.16;3619642;39;20074;-66
2023/09/30 11:16:01;;;;;;;9.70;3.97;;;;;;;23.07;51.50;102433.00;3617592;39;20087;-65
2023/09/30 11:18:26;;;;;;;6.25;3.78;;;;;;;23.06;50.21;102439.50;3616766;39;20341;-66